sensor_id;sensor_type;location;lat;lon;timestamp;P1;durP1;ratioP1;P2;durP2;ratioP2
5014;SDS011;2526;51.060;4.228;2022-12-07T00:01:32;11.00;;;6.50;;
5014;SDS011;2526;51.060;4.228;2022-12-07T00:03:59;17.65;;;5.97;;
5014;SDS011;2526;51.060;4.228;2022-12-07T00:06:31;9.48;;;5.47;;
5014;SDS011;2526;51.060;4.228;2022-12-07T00:08:57;14.98;;;8.07;;
5014;SDS011;2526;51.060;4.228;2022-12-07T00:11:23;12.15;;;8.63;;
5014;SDS011;2526;51.060;4.228;2022-12-07T00:13:52;12.27;;;7.57;;
5014;SDS011;2526;51.060;4.228;2022-12-07T00:16:18;21.92;;;7.82;;
5014;SDS011;2526;51.060;4.228;2022-12-07T00:18:44;11.13;;;7.15;;
5014;SDS011;2526;51.060;4.228;2022-12-07T00:23:35;9.43;;;6.75;;
5014;SDS011;2526;51.060;4.228;2022-12-07T00:26:20;9.30;;;7.32;;
5014;SDS011;2526;51.060;4.228;2022-12-07T00:28:46;14.65;;;7.00;;
5014;SDS011;2526;51.060;4.228;2022-12-07T00:31:12;11.52;;;7.18;;
5014;SDS011;2526;51.060;4.228;2022-12-07T00:33:38;9.32;;;6.30;;
5014;SDS011;2526;51.060;4.228;2022-12-07T00:36:05;10.68;;;7.05;;
5014;SDS011;2526;51.060;4.228;2022-12-07T00:38:32;10.73;;;7.13;;
5014;SDS011;2526;51.060;4.228;2022-12-07T00:40:59;10.10;;;6.40;;
5014;SDS011;2526;51.060;4.228;2022-12-07T00:43:24;14.10;;;7.70;;
5014;SDS011;2526;51.060;4.228;2022-12-07T00:45:50;15.35;;;7.55;;
5014;SDS011;2526;51.060;4.228;2022-12-07T00:48:15;10.38;;;6.35;;
5014;SDS011;2526;51.060;4.228;2022-12-07T00:50:41;13.98;;;7.72;;
5014;SDS011;2526;51.060;4.228;2022-12-07T00:53:06;12.65;;;5.90;;
5014;SDS011;2526;51.060;4.228;2022-12-07T00:55:35;11.88;;;7.32;;
5014;SDS011;2526;51.060;4.228;2022-12-07T00:58:01;13.80;;;8.65;;
5014;SDS011;2526;51.060;4.228;2022-12-07T01:00:26;9.95;;;6.45;;
5014;SDS011;2526;51.060;4.228;2022-12-07T01:02:52;16.63;;;8.52;;
5014;SDS011;2526;51.060;4.228;2022-12-07T01:05:17;11.77;;;8.32;;
5014;SDS011;2526;51.060;4.228;2022-12-07T01:07:43;18.77;;;7.82;;
5014;SDS011;2526;51.060;4.228;2022-12-07T01:10:08;10.13;;;6.88;;
5014;SDS011;2526;51.060;4.228;2022-12-07T01:12:34;8.65;;;7.10;;
5014;SDS011;2526;51.060;4.228;2022-12-07T01:14:59;13.20;;;7.05;;
5014;SDS011;2526;51.060;4.228;2022-12-07T01:17:25;15.75;;;9.18;;
5014;SDS011;2526;51.060;4.228;2022-12-07T01:19:50;12.20;;;7.50;;
5014;SDS011;2526;51.060;4.228;2022-12-07T01:22:16;14.23;;;8.27;;
5014;SDS011;2526;51.060;4.228;2022-12-07T01:24:41;13.05;;;6.85;;
5014;SDS011;2526;51.060;4.228;2022-12-07T01:27:06;12.80;;;8.63;;
5014;SDS011;2526;51.060;4.228;2022-12-07T01:29:32;10.57;;;6.22;;
5014;SDS011;2526;51.060;4.228;2022-12-07T01:31:57;10.45;;;7.55;;
5014;SDS011;2526;51.060;4.228;2022-12-07T01:34:23;11.82;;;7.57;;
5014;SDS011;2526;51.060;4.228;2022-12-07T01:36:48;12.30;;;7.05;;
5014;SDS011;2526;51.060;4.228;2022-12-07T01:39:13;9.65;;;6.78;;
5014;SDS011;2526;51.060;4.228;2022-12-07T01:41:39;12.55;;;6.90;;
5014;SDS011;2526;51.060;4.228;2022-12-07T01:44:10;9.52;;;5.85;;
5014;SDS011;2526;51.060;4.228;2022-12-07T01:46:36;12.05;;;7.15;;
5014;SDS011;2526;51.060;4.228;2022-12-07T01:49:01;9.85;;;6.72;;
5014;SDS011;2526;51.060;4.228;2022-12-07T01:51:27;11.25;;;8.35;;
5014;SDS011;2526;51.060;4.228;2022-12-07T01:53:53;9.75;;;6.30;;
5014;SDS011;2526;51.060;4.228;2022-12-07T01:56:20;9.23;;;6.45;;
5014;SDS011;2526;51.060;4.228;2022-12-07T01:58:47;9.32;;;6.00;;
5014;SDS011;2526;51.060;4.228;2022-12-07T02:01:14;8.73;;;6.35;;
5014;SDS011;2526;51.060;4.228;2022-12-07T02:03:41;9.65;;;6.60;;
5014;SDS011;2526;51.060;4.228;2022-12-07T02:06:07;13.15;;;8.20;;
5014;SDS011;2526;51.060;4.228;2022-12-07T02:08:33;8.88;;;5.50;;
5014;SDS011;2526;51.060;4.228;2022-12-07T02:10:59;8.77;;;5.95;;
5014;SDS011;2526;51.060;4.228;2022-12-07T02:13:26;9.52;;;6.88;;
5014;SDS011;2526;51.060;4.228;2022-12-07T02:16:08;8.88;;;5.55;;
5014;SDS011;2526;51.060;4.228;2022-12-07T02:18:38;8.52;;;5.88;;
5014;SDS011;2526;51.060;4.228;2022-12-07T02:31:16;7.57;;;4.65;;
5014;SDS011;2526;51.060;4.228;2022-12-07T02:33:45;7.53;;;6.20;;
5014;SDS011;2526;51.060;4.228;2022-12-07T02:36:22;10.02;;;6.60;;
5014;SDS011;2526;51.060;4.228;2022-12-07T02:38:58;8.80;;;4.72;;
5014;SDS011;2526;51.060;4.228;2022-12-07T02:41:31;13.20;;;5.18;;
5014;SDS011;2526;51.060;4.228;2022-12-07T02:43:59;14.90;;;5.82;;
5014;SDS011;2526;51.060;4.228;2022-12-07T02:46:30;7.85;;;5.28;;
5014;SDS011;2526;51.060;4.228;2022-12-07T02:48:57;7.38;;;5.22;;
5014;SDS011;2526;51.060;4.228;2022-12-07T02:51:24;12.20;;;6.60;;
5014;SDS011;2526;51.060;4.228;2022-12-07T02:53:50;11.98;;;5.80;;
5014;SDS011;2526;51.060;4.228;2022-12-07T02:56:37;7.57;;;6.47;;
5014;SDS011;2526;51.060;4.228;2022-12-07T03:07:02;9.35;;;7.03;;
5014;SDS011;2526;51.060;4.228;2022-12-07T03:09:35;9.95;;;6.25;;
5014;SDS011;2526;51.060;4.228;2022-12-07T03:14:35;7.70;;;5.47;;
5014;SDS011;2526;51.060;4.228;2022-12-07T03:17:08;14.55;;;5.75;;
5014;SDS011;2526;51.060;4.228;2022-12-07T03:19:35;9.43;;;5.25;;
5014;SDS011;2526;51.060;4.228;2022-12-07T03:22:09;6.53;;;4.25;;
5014;SDS011;2526;51.060;4.228;2022-12-07T03:28:02;8.77;;;4.18;;
5014;SDS011;2526;51.060;4.228;2022-12-07T03:29:59;7.47;;;4.20;;
5014;SDS011;2526;51.060;4.228;2022-12-07T03:32:27;12.68;;;5.57;;
5014;SDS011;2526;51.060;4.228;2022-12-07T03:34:56;10.63;;;6.63;;
5014;SDS011;2526;51.060;4.228;2022-12-07T03:37:26;7.38;;;5.30;;
5014;SDS011;2526;51.060;4.228;2022-12-07T03:39:57;7.40;;;4.82;;
5014;SDS011;2526;51.060;4.228;2022-12-07T03:42:24;8.02;;;3.92;;
5014;SDS011;2526;51.060;4.228;2022-12-07T03:44:49;8.85;;;6.32;;
5014;SDS011;2526;51.060;4.228;2022-12-07T03:50:02;6.40;;;4.65;;
5014;SDS011;2526;51.060;4.228;2022-12-07T03:52:35;6.22;;;5.45;;
5014;SDS011;2526;51.060;4.228;2022-12-07T03:55:09;7.47;;;5.00;;
5014;SDS011;2526;51.060;4.228;2022-12-07T03:57:35;6.05;;;4.93;;
5014;SDS011;2526;51.060;4.228;2022-12-07T04:00:03;6.53;;;3.97;;
5014;SDS011;2526;51.060;4.228;2022-12-07T04:02:29;10.30;;;5.22;;
5014;SDS011;2526;51.060;4.228;2022-12-07T04:04:55;7.63;;;4.90;;
5014;SDS011;2526;51.060;4.228;2022-12-07T04:07:20;8.57;;;5.15;;
5014;SDS011;2526;51.060;4.228;2022-12-07T04:09:46;9.43;;;4.63;;
5014;SDS011;2526;51.060;4.228;2022-12-07T04:12:11;9.27;;;5.13;;
5014;SDS011;2526;51.060;4.228;2022-12-07T04:14:37;13.38;;;5.47;;
5014;SDS011;2526;51.060;4.228;2022-12-07T04:17:02;8.10;;;5.07;;
5014;SDS011;2526;51.060;4.228;2022-12-07T04:19:29;11.32;;;4.88;;
5014;SDS011;2526;51.060;4.228;2022-12-07T04:21:55;8.35;;;4.50;;
5014;SDS011;2526;51.060;4.228;2022-12-07T04:24:21;8.00;;;4.15;;
5014;SDS011;2526;51.060;4.228;2022-12-07T04:26:47;6.18;;;4.35;;
5014;SDS011;2526;51.060;4.228;2022-12-07T04:29:13;6.35;;;4.53;;
5014;SDS011;2526;51.060;4.228;2022-12-07T04:31:38;4.43;;;3.38;;
5014;SDS011;2526;51.060;4.228;2022-12-07T04:34:04;15.10;;;5.10;;
5014;SDS011;2526;51.060;4.228;2022-12-07T04:36:30;8.48;;;4.15;;
5014;SDS011;2526;51.060;4.228;2022-12-07T04:38:55;6.47;;;4.22;;
5014;SDS011;2526;51.060;4.228;2022-12-07T04:41:21;6.18;;;5.40;;
5014;SDS011;2526;51.060;4.228;2022-12-07T04:44:02;5.88;;;3.17;;
5014;SDS011;2526;51.060;4.228;2022-12-07T04:46:29;4.72;;;3.63;;
5014;SDS011;2526;51.060;4.228;2022-12-07T04:48:55;9.50;;;3.72;;
5014;SDS011;2526;51.060;4.228;2022-12-07T04:51:22;7.40;;;3.92;;
5014;SDS011;2526;51.060;4.228;2022-12-07T04:53:47;11.63;;;4.57;;
5014;SDS011;2526;51.060;4.228;2022-12-07T04:56:13;6.28;;;4.03;;
5014;SDS011;2526;51.060;4.228;2022-12-07T04:58:39;6.78;;;4.18;;
5014;SDS011;2526;51.060;4.228;2022-12-07T05:01:04;7.57;;;2.88;;
5014;SDS011;2526;51.060;4.228;2022-12-07T05:03:30;8.57;;;4.63;;
5014;SDS011;2526;51.060;4.228;2022-12-07T05:05:55;4.50;;;3.08;;
5014;SDS011;2526;51.060;4.228;2022-12-07T05:08:21;4.60;;;3.92;;
5014;SDS011;2526;51.060;4.228;2022-12-07T05:10:47;8.32;;;4.07;;
5014;SDS011;2526;51.060;4.228;2022-12-07T05:13:13;5.75;;;3.53;;
5014;SDS011;2526;51.060;4.228;2022-12-07T05:15:38;6.70;;;4.13;;
5014;SDS011;2526;51.060;4.228;2022-12-07T05:18:04;11.43;;;4.95;;
5014;SDS011;2526;51.060;4.228;2022-12-07T05:20:29;7.88;;;4.28;;
5014;SDS011;2526;51.060;4.228;2022-12-07T05:22:55;5.53;;;4.10;;
5014;SDS011;2526;51.060;4.228;2022-12-07T05:25:20;8.43;;;5.03;;
5014;SDS011;2526;51.060;4.228;2022-12-07T05:27:45;6.20;;;5.03;;
5014;SDS011;2526;51.060;4.228;2022-12-07T05:30:12;7.47;;;4.25;;
5014;SDS011;2526;51.060;4.228;2022-12-07T05:32:37;8.00;;;4.43;;
5014;SDS011;2526;51.060;4.228;2022-12-07T05:35:03;8.15;;;4.88;;
5014;SDS011;2526;51.060;4.228;2022-12-07T05:37:28;6.43;;;5.30;;
5014;SDS011;2526;51.060;4.228;2022-12-07T05:39:54;7.85;;;3.75;;
5014;SDS011;2526;51.060;4.228;2022-12-07T05:42:19;11.30;;;4.60;;
5014;SDS011;2526;51.060;4.228;2022-12-07T05:44:45;6.80;;;3.72;;
5014;SDS011;2526;51.060;4.228;2022-12-07T05:47:12;7.07;;;4.72;;
5014;SDS011;2526;51.060;4.228;2022-12-07T05:49:38;5.57;;;3.53;;
5014;SDS011;2526;51.060;4.228;2022-12-07T05:52:03;8.60;;;5.18;;
5014;SDS011;2526;51.060;4.228;2022-12-07T05:54:29;7.78;;;4.13;;
5014;SDS011;2526;51.060;4.228;2022-12-07T05:56:55;9.00;;;3.67;;
5014;SDS011;2526;51.060;4.228;2022-12-07T05:59:20;6.65;;;4.50;;
5014;SDS011;2526;51.060;4.228;2022-12-07T06:01:50;6.72;;;3.92;;
5014;SDS011;2526;51.060;4.228;2022-12-07T06:04:15;5.75;;;4.40;;
5014;SDS011;2526;51.060;4.228;2022-12-07T06:06:41;9.65;;;4.32;;
5014;SDS011;2526;51.060;4.228;2022-12-07T06:09:06;9.13;;;4.50;;
5014;SDS011;2526;51.060;4.228;2022-12-07T06:11:32;7.35;;;5.00;;
5014;SDS011;2526;51.060;4.228;2022-12-07T06:16:41;7.97;;;3.78;;
5014;SDS011;2526;51.060;4.228;2022-12-07T06:19:06;8.07;;;3.78;;
5014;SDS011;2526;51.060;4.228;2022-12-07T06:21:32;6.88;;;5.07;;
5014;SDS011;2526;51.060;4.228;2022-12-07T06:23:57;8.48;;;5.75;;
5014;SDS011;2526;51.060;4.228;2022-12-07T06:26:23;7.93;;;5.05;;
5014;SDS011;2526;51.060;4.228;2022-12-07T06:28:48;5.32;;;3.85;;
5014;SDS011;2526;51.060;4.228;2022-12-07T06:31:14;6.63;;;3.58;;
5014;SDS011;2526;51.060;4.228;2022-12-07T06:33:39;6.65;;;4.22;;
5014;SDS011;2526;51.060;4.228;2022-12-07T06:36:05;6.95;;;4.32;;
5014;SDS011;2526;51.060;4.228;2022-12-07T06:38:30;4.78;;;3.67;;
5014;SDS011;2526;51.060;4.228;2022-12-07T06:40:56;5.40;;;4.22;;
5014;SDS011;2526;51.060;4.228;2022-12-07T06:43:22;8.50;;;4.78;;
5014;SDS011;2526;51.060;4.228;2022-12-07T06:45:47;9.05;;;5.32;;
5014;SDS011;2526;51.060;4.228;2022-12-07T06:48:12;9.70;;;4.47;;
5014;SDS011;2526;51.060;4.228;2022-12-07T06:50:38;5.90;;;3.40;;
5014;SDS011;2526;51.060;4.228;2022-12-07T06:53:03;6.03;;;3.65;;
5014;SDS011;2526;51.060;4.228;2022-12-07T06:55:29;7.45;;;4.07;;
5014;SDS011;2526;51.060;4.228;2022-12-07T06:57:54;11.90;;;4.82;;
5014;SDS011;2526;51.060;4.228;2022-12-07T07:00:20;8.23;;;4.82;;
5014;SDS011;2526;51.060;4.228;2022-12-07T07:02:45;5.00;;;3.15;;
5014;SDS011;2526;51.060;4.228;2022-12-07T07:05:10;6.32;;;3.97;;
5014;SDS011;2526;51.060;4.228;2022-12-07T07:07:36;6.78;;;4.70;;
5014;SDS011;2526;51.060;4.228;2022-12-07T07:10:02;6.13;;;4.97;;
5014;SDS011;2526;51.060;4.228;2022-12-07T07:12:28;6.20;;;3.75;;
5014;SDS011;2526;51.060;4.228;2022-12-07T07:14:53;5.45;;;3.50;;
5014;SDS011;2526;51.060;4.228;2022-12-07T07:17:18;5.38;;;4.25;;
5014;SDS011;2526;51.060;4.228;2022-12-07T07:19:44;8.50;;;5.57;;
5014;SDS011;2526;51.060;4.228;2022-12-07T07:22:09;8.38;;;4.57;;
5014;SDS011;2526;51.060;4.228;2022-12-07T07:24:35;5.32;;;3.67;;
5014;SDS011;2526;51.060;4.228;2022-12-07T07:27:00;8.75;;;3.45;;
5014;SDS011;2526;51.060;4.228;2022-12-07T07:29:26;6.57;;;2.85;;
5014;SDS011;2526;51.060;4.228;2022-12-07T07:31:51;5.72;;;4.57;;
5014;SDS011;2526;51.060;4.228;2022-12-07T07:34:17;7.97;;;4.32;;
5014;SDS011;2526;51.060;4.228;2022-12-07T07:36:42;7.45;;;3.45;;
5014;SDS011;2526;51.060;4.228;2022-12-07T07:39:09;11.07;;;4.68;;
5014;SDS011;2526;51.060;4.228;2022-12-07T07:41:34;9.63;;;4.10;;
5014;SDS011;2526;51.060;4.228;2022-12-07T07:44:00;6.40;;;3.92;;
5014;SDS011;2526;51.060;4.228;2022-12-07T07:46:25;13.40;;;6.50;;
5014;SDS011;2526;51.060;4.228;2022-12-07T07:48:51;6.53;;;4.70;;
5014;SDS011;2526;51.060;4.228;2022-12-07T07:51:16;5.65;;;3.75;;
5014;SDS011;2526;51.060;4.228;2022-12-07T07:53:43;9.13;;;5.68;;
5014;SDS011;2526;51.060;4.228;2022-12-07T07:56:08;8.32;;;3.47;;
5014;SDS011;2526;51.060;4.228;2022-12-07T07:58:34;6.82;;;4.38;;
5014;SDS011;2526;51.060;4.228;2022-12-07T08:01:03;5.78;;;3.55;;
5014;SDS011;2526;51.060;4.228;2022-12-07T08:03:29;6.68;;;4.40;;
5014;SDS011;2526;51.060;4.228;2022-12-07T08:05:54;7.32;;;3.65;;
5014;SDS011;2526;51.060;4.228;2022-12-07T08:08:20;9.20;;;5.03;;
5014;SDS011;2526;51.060;4.228;2022-12-07T08:10:45;8.07;;;4.32;;
5014;SDS011;2526;51.060;4.228;2022-12-07T08:13:10;4.43;;;3.60;;
5014;SDS011;2526;51.060;4.228;2022-12-07T08:15:37;5.10;;;3.63;;
5014;SDS011;2526;51.060;4.228;2022-12-07T08:18:02;11.80;;;4.55;;
5014;SDS011;2526;51.060;4.228;2022-12-07T08:20:29;5.93;;;4.05;;
5014;SDS011;2526;51.060;4.228;2022-12-07T08:22:54;9.57;;;4.32;;
5014;SDS011;2526;51.060;4.228;2022-12-07T08:25:20;6.57;;;4.35;;
5014;SDS011;2526;51.060;4.228;2022-12-07T08:27:47;8.95;;;5.05;;
5014;SDS011;2526;51.060;4.228;2022-12-07T08:30:13;13.48;;;5.50;;
5014;SDS011;2526;51.060;4.228;2022-12-07T08:32:38;13.95;;;4.25;;
5014;SDS011;2526;51.060;4.228;2022-12-07T08:35:04;7.32;;;3.30;;
5014;SDS011;2526;51.060;4.228;2022-12-07T08:37:29;8.73;;;4.18;;
5014;SDS011;2526;51.060;4.228;2022-12-07T08:39:55;10.95;;;5.15;;
5014;SDS011;2526;51.060;4.228;2022-12-07T08:42:20;5.13;;;3.20;;
5014;SDS011;2526;51.060;4.228;2022-12-07T08:44:48;5.85;;;4.22;;
5014;SDS011;2526;51.060;4.228;2022-12-07T08:47:13;11.35;;;5.38;;
5014;SDS011;2526;51.060;4.228;2022-12-07T08:49:40;9.00;;;3.85;;
5014;SDS011;2526;51.060;4.228;2022-12-07T08:52:06;10.65;;;4.22;;
5014;SDS011;2526;51.060;4.228;2022-12-07T08:54:32;10.45;;;4.53;;
5014;SDS011;2526;51.060;4.228;2022-12-07T08:56:59;14.52;;;6.90;;
5014;SDS011;2526;51.060;4.228;2022-12-07T08:59:24;9.52;;;3.75;;
5014;SDS011;2526;51.060;4.228;2022-12-07T09:01:50;4.95;;;3.53;;
5014;SDS011;2526;51.060;4.228;2022-12-07T09:04:16;12.00;;;5.70;;
5014;SDS011;2526;51.060;4.228;2022-12-07T09:06:41;9.68;;;3.97;;
5014;SDS011;2526;51.060;4.228;2022-12-07T09:09:07;11.88;;;3.92;;
5014;SDS011;2526;51.060;4.228;2022-12-07T09:11:33;6.07;;;3.63;;
5014;SDS011;2526;51.060;4.228;2022-12-07T09:13:58;11.93;;;4.72;;
5014;SDS011;2526;51.060;4.228;2022-12-07T09:16:25;15.52;;;4.88;;
5014;SDS011;2526;51.060;4.228;2022-12-07T09:18:51;9.90;;;4.88;;
5014;SDS011;2526;51.060;4.228;2022-12-07T09:21:16;5.13;;;4.25;;
5014;SDS011;2526;51.060;4.228;2022-12-07T09:23:42;14.23;;;6.75;;
5014;SDS011;2526;51.060;4.228;2022-12-07T09:26:08;8.27;;;3.88;;
5014;SDS011;2526;51.060;4.228;2022-12-07T09:28:33;7.55;;;3.72;;
5014;SDS011;2526;51.060;4.228;2022-12-07T09:30:59;6.93;;;3.80;;
5014;SDS011;2526;51.060;4.228;2022-12-07T09:33:25;7.88;;;3.85;;
5014;SDS011;2526;51.060;4.228;2022-12-07T09:35:50;14.27;;;6.68;;
5014;SDS011;2526;51.060;4.228;2022-12-07T09:38:17;10.07;;;4.43;;
5014;SDS011;2526;51.060;4.228;2022-12-07T09:40:43;4.43;;;2.90;;
5014;SDS011;2526;51.060;4.228;2022-12-07T09:43:19;8.95;;;2.95;;
5014;SDS011;2526;51.060;4.228;2022-12-07T09:45:46;11.52;;;4.82;;
5014;SDS011;2526;51.060;4.228;2022-12-07T09:48:19;6.13;;;3.17;;
5014;SDS011;2526;51.060;4.228;2022-12-07T09:50:47;3.55;;;2.50;;
5014;SDS011;2526;51.060;4.228;2022-12-07T09:53:14;6.20;;;3.10;;
5014;SDS011;2526;51.060;4.228;2022-12-07T09:55:40;10.05;;;4.38;;
5014;SDS011;2526;51.060;4.228;2022-12-07T09:58:08;11.40;;;3.15;;
5014;SDS011;2526;51.060;4.228;2022-12-07T10:00:37;10.95;;;5.28;;
5014;SDS011;2526;51.060;4.228;2022-12-07T10:03:02;11.75;;;3.13;;
5014;SDS011;2526;51.060;4.228;2022-12-07T10:05:38;12.30;;;3.75;;
5014;SDS011;2526;51.060;4.228;2022-12-07T10:08:07;6.05;;;3.60;;
5014;SDS011;2526;51.060;4.228;2022-12-07T10:10:33;8.18;;;2.83;;
5014;SDS011;2526;51.060;4.228;2022-12-07T10:13:00;8.13;;;4.18;;
5014;SDS011;2526;51.060;4.228;2022-12-07T10:20:45;6.03;;;3.95;;
5014;SDS011;2526;51.060;4.228;2022-12-07T10:23:15;6.20;;;3.70;;
5014;SDS011;2526;51.060;4.228;2022-12-07T10:25:41;24.80;;;4.68;;
5014;SDS011;2526;51.060;4.228;2022-12-07T10:30:33;9.23;;;4.78;;
5014;SDS011;2526;51.060;4.228;2022-12-07T10:32:59;9.52;;;3.05;;
5014;SDS011;2526;51.060;4.228;2022-12-07T10:35:25;6.38;;;3.92;;
5014;SDS011;2526;51.060;4.228;2022-12-07T10:37:52;9.50;;;3.00;;
5014;SDS011;2526;51.060;4.228;2022-12-07T10:40:25;5.35;;;3.05;;
5014;SDS011;2526;51.060;4.228;2022-12-07T10:43:02;5.53;;;2.97;;
5014;SDS011;2526;51.060;4.228;2022-12-07T10:45:27;5.63;;;2.40;;
5014;SDS011;2526;51.060;4.228;2022-12-07T10:50:37;5.18;;;3.80;;
5014;SDS011;2526;51.060;4.228;2022-12-07T11:00:43;4.72;;;3.15;;
5014;SDS011;2526;51.060;4.228;2022-12-07T11:06:03;7.03;;;3.72;;
5014;SDS011;2526;51.060;4.228;2022-12-07T11:11:36;9.50;;;4.07;;
5014;SDS011;2526;51.060;4.228;2022-12-07T11:16:57;11.68;;;2.75;;
5014;SDS011;2526;51.060;4.228;2022-12-07T11:19:40;8.02;;;2.03;;
5014;SDS011;2526;51.060;4.228;2022-12-07T11:22:20;7.93;;;3.92;;
5014;SDS011;2526;51.060;4.228;2022-12-07T11:25:13;5.70;;;2.85;;
5014;SDS011;2526;51.060;4.228;2022-12-07T11:27:57;9.73;;;2.35;;
5014;SDS011;2526;51.060;4.228;2022-12-07T11:30:33;3.95;;;2.40;;
5014;SDS011;2526;51.060;4.228;2022-12-07T11:35:40;8.45;;;3.65;;
5014;SDS011;2526;51.060;4.228;2022-12-07T11:38:15;2.70;;;2.05;;
5014;SDS011;2526;51.060;4.228;2022-12-07T11:40:42;3.95;;;2.47;;
5014;SDS011;2526;51.060;4.228;2022-12-07T11:43:27;4.68;;;2.33;;
5014;SDS011;2526;51.060;4.228;2022-12-07T11:45:59;6.45;;;2.60;;
5014;SDS011;2526;51.060;4.228;2022-12-07T11:50:54;15.38;;;4.00;;
5014;SDS011;2526;51.060;4.228;2022-12-07T11:58:35;6.63;;;2.67;;
5014;SDS011;2526;51.060;4.228;2022-12-07T12:03:30;7.40;;;2.30;;
5014;SDS011;2526;51.060;4.228;2022-12-07T12:05:57;6.95;;;2.10;;
5014;SDS011;2526;51.060;4.228;2022-12-07T12:08:30;3.05;;;2.25;;
5014;SDS011;2526;51.060;4.228;2022-12-07T12:16:00;5.63;;;3.35;;
5014;SDS011;2526;51.060;4.228;2022-12-07T12:21:03;2.72;;;1.83;;
5014;SDS011;2526;51.060;4.228;2022-12-07T12:23:45;3.92;;;1.63;;
5014;SDS011;2526;51.060;4.228;2022-12-07T12:26:22;7.70;;;2.95;;
5014;SDS011;2526;51.060;4.228;2022-12-07T12:28:58;1.58;;;1.40;;
5014;SDS011;2526;51.060;4.228;2022-12-07T12:33:56;4.07;;;1.30;;
5014;SDS011;2526;51.060;4.228;2022-12-07T12:36:24;2.30;;;1.23;;
5014;SDS011;2526;51.060;4.228;2022-12-07T12:43:59;5.90;;;1.52;;
5014;SDS011;2526;51.060;4.228;2022-12-07T12:48:54;6.07;;;1.13;;
5014;SDS011;2526;51.060;4.228;2022-12-07T12:51:37;2.25;;;1.15;;
5014;SDS011;2526;51.060;4.228;2022-12-07T12:54:04;7.03;;;1.38;;
5014;SDS011;2526;51.060;4.228;2022-12-07T13:04:51;1.65;;;1.20;;
5014;SDS011;2526;51.060;4.228;2022-12-07T13:10:01;2.85;;;1.63;;
5014;SDS011;2526;51.060;4.228;2022-12-07T13:12:27;2.17;;;1.45;;
5014;SDS011;2526;51.060;4.228;2022-12-07T13:14:54;1.85;;;1.00;;
5014;SDS011;2526;51.060;4.228;2022-12-07T13:20:39;15.73;;;2.22;;
5014;SDS011;2526;51.060;4.228;2022-12-07T13:22:49;3.45;;;1.42;;
5014;SDS011;2526;51.060;4.228;2022-12-07T13:25:26;2.03;;;1.75;;
5014;SDS011;2526;51.060;4.228;2022-12-07T13:28:16;5.90;;;2.45;;
5014;SDS011;2526;51.060;4.228;2022-12-07T13:30:43;3.47;;;1.60;;
5014;SDS011;2526;51.060;4.228;2022-12-07T13:33:10;3.90;;;2.15;;
5014;SDS011;2526;51.060;4.228;2022-12-07T13:35:36;2.05;;;1.35;;
5014;SDS011;2526;51.060;4.228;2022-12-07T13:38:13;1.63;;;1.20;;
5014;SDS011;2526;51.060;4.228;2022-12-07T13:40:40;7.15;;;1.48;;
5014;SDS011;2526;51.060;4.228;2022-12-07T13:43:12;6.40;;;2.47;;
5014;SDS011;2526;51.060;4.228;2022-12-07T13:45:39;2.17;;;1.20;;
5014;SDS011;2526;51.060;4.228;2022-12-07T13:48:15;3.92;;;1.52;;
5014;SDS011;2526;51.060;4.228;2022-12-07T13:50:41;4.50;;;2.00;;
5014;SDS011;2526;51.060;4.228;2022-12-07T13:53:07;2.83;;;1.10;;
5014;SDS011;2526;51.060;4.228;2022-12-07T13:55:36;1.45;;;0.93;;
5014;SDS011;2526;51.060;4.228;2022-12-07T13:58:09;4.15;;;1.52;;
5014;SDS011;2526;51.060;4.228;2022-12-07T14:00:34;3.33;;;1.00;;
5014;SDS011;2526;51.060;4.228;2022-12-07T14:03:04;1.10;;;0.90;;
5014;SDS011;2526;51.060;4.228;2022-12-07T14:05:48;1.35;;;0.88;;
5014;SDS011;2526;51.060;4.228;2022-12-07T14:08:29;1.80;;;1.15;;
5014;SDS011;2526;51.060;4.228;2022-12-07T14:10:55;2.00;;;1.05;;
5014;SDS011;2526;51.060;4.228;2022-12-07T14:15:53;1.80;;;0.75;;
5014;SDS011;2526;51.060;4.228;2022-12-07T14:18:36;12.43;;;0.68;;
5014;SDS011;2526;51.060;4.228;2022-12-07T14:21:13;6.78;;;1.02;;
5014;SDS011;2526;51.060;4.228;2022-12-07T14:23:39;1.67;;;1.58;;
5014;SDS011;2526;51.060;4.228;2022-12-07T14:26:11;2.65;;;1.00;;
5014;SDS011;2526;51.060;4.228;2022-12-07T14:28:37;2.80;;;0.85;;
5014;SDS011;2526;51.060;4.228;2022-12-07T14:31:02;6.38;;;1.38;;
5014;SDS011;2526;51.060;4.228;2022-12-07T14:33:28;1.88;;;0.57;;
5014;SDS011;2526;51.060;4.228;2022-12-07T14:35:54;0.73;;;0.40;;
5014;SDS011;2526;51.060;4.228;2022-12-07T14:38:23;5.75;;;0.43;;
5014;SDS011;2526;51.060;4.228;2022-12-07T14:40:50;1.52;;;0.40;;
5014;SDS011;2526;51.060;4.228;2022-12-07T14:43:16;0.55;;;0.38;;
5014;SDS011;2526;51.060;4.228;2022-12-07T14:45:42;0.80;;;0.65;;
5014;SDS011;2526;51.060;4.228;2022-12-07T14:48:09;4.55;;;1.55;;
5014;SDS011;2526;51.060;4.228;2022-12-07T14:50:37;1.33;;;0.47;;
5014;SDS011;2526;51.060;4.228;2022-12-07T14:53:04;0.50;;;0.47;;
5014;SDS011;2526;51.060;4.228;2022-12-07T14:55:32;0.65;;;0.30;;
5014;SDS011;2526;51.060;4.228;2022-12-07T14:57:58;3.88;;;0.50;;
5014;SDS011;2526;51.060;4.228;2022-12-07T15:00:24;2.28;;;0.75;;
5014;SDS011;2526;51.060;4.228;2022-12-07T15:02:50;2.53;;;0.90;;
5014;SDS011;2526;51.060;4.228;2022-12-07T15:05:16;6.97;;;0.70;;
5014;SDS011;2526;51.060;4.228;2022-12-07T15:07:42;4.57;;;0.85;;
5014;SDS011;2526;51.060;4.228;2022-12-07T15:12:43;3.28;;;0.95;;
5014;SDS011;2526;51.060;4.228;2022-12-07T15:15:09;3.15;;;1.02;;
5014;SDS011;2526;51.060;4.228;2022-12-07T15:17:34;2.45;;;1.05;;
5014;SDS011;2526;51.060;4.228;2022-12-07T15:20:00;3.13;;;0.80;;
5014;SDS011;2526;51.060;4.228;2022-12-07T15:22:25;2.25;;;1.40;;
5014;SDS011;2526;51.060;4.228;2022-12-07T15:24:51;0.57;;;0.47;;
5014;SDS011;2526;51.060;4.228;2022-12-07T15:27:16;6.30;;;1.20;;
5014;SDS011;2526;51.060;4.228;2022-12-07T15:29:41;1.05;;;0.60;;
5014;SDS011;2526;51.060;4.228;2022-12-07T15:32:07;2.35;;;0.70;;
5014;SDS011;2526;51.060;4.228;2022-12-07T15:34:32;2.22;;;0.65;;
5014;SDS011;2526;51.060;4.228;2022-12-07T15:36:58;0.82;;;0.47;;
5014;SDS011;2526;51.060;4.228;2022-12-07T15:39:23;0.35;;;0.35;;
5014;SDS011;2526;51.060;4.228;2022-12-07T15:41:49;1.98;;;0.82;;
5014;SDS011;2526;51.060;4.228;2022-12-07T15:44:15;1.15;;;0.80;;
5014;SDS011;2526;51.060;4.228;2022-12-07T15:46:59;5.47;;;1.00;;
5014;SDS011;2526;51.060;4.228;2022-12-07T15:49:25;0.95;;;0.77;;
5014;SDS011;2526;51.060;4.228;2022-12-07T15:51:51;8.93;;;1.00;;
5014;SDS011;2526;51.060;4.228;2022-12-07T15:54:34;1.02;;;0.60;;
5014;SDS011;2526;51.060;4.228;2022-12-07T15:57:00;7.05;;;1.00;;
5014;SDS011;2526;51.060;4.228;2022-12-07T15:59:25;3.92;;;0.55;;
5014;SDS011;2526;51.060;4.228;2022-12-07T16:01:51;1.15;;;0.63;;
5014;SDS011;2526;51.060;4.228;2022-12-07T16:04:17;0.43;;;0.43;;
5014;SDS011;2526;51.060;4.228;2022-12-07T16:06:42;3.47;;;1.23;;
5014;SDS011;2526;51.060;4.228;2022-12-07T16:09:07;3.20;;;0.80;;
5014;SDS011;2526;51.060;4.228;2022-12-07T16:11:33;1.38;;;1.00;;
5014;SDS011;2526;51.060;4.228;2022-12-07T16:13:59;1.48;;;0.95;;
5014;SDS011;2526;51.060;4.228;2022-12-07T16:16:24;0.80;;;0.70;;
5014;SDS011;2526;51.060;4.228;2022-12-07T16:18:50;2.50;;;1.05;;
5014;SDS011;2526;51.060;4.228;2022-12-07T16:21:17;4.68;;;1.15;;
5014;SDS011;2526;51.060;4.228;2022-12-07T16:23:42;2.33;;;1.58;;
5014;SDS011;2526;51.060;4.228;2022-12-07T16:26:10;1.25;;;1.15;;
5014;SDS011;2526;51.060;4.228;2022-12-07T16:28:35;1.48;;;1.05;;
5014;SDS011;2526;51.060;4.228;2022-12-07T16:31:05;3.75;;;1.10;;
5014;SDS011;2526;51.060;4.228;2022-12-07T16:33:32;1.48;;;0.88;;
5014;SDS011;2526;51.060;4.228;2022-12-07T16:35:58;2.15;;;1.45;;
5014;SDS011;2526;51.060;4.228;2022-12-07T16:38:24;4.65;;;1.38;;
5014;SDS011;2526;51.060;4.228;2022-12-07T16:40:50;1.40;;;1.08;;
5014;SDS011;2526;51.060;4.228;2022-12-07T16:43:15;2.08;;;1.27;;
5014;SDS011;2526;51.060;4.228;2022-12-07T16:45:41;4.97;;;1.13;;
5014;SDS011;2526;51.060;4.228;2022-12-07T16:48:06;2.60;;;1.48;;
5014;SDS011;2526;51.060;4.228;2022-12-07T16:50:32;1.92;;;1.30;;
5014;SDS011;2526;51.060;4.228;2022-12-07T16:52:57;2.92;;;1.75;;
5014;SDS011;2526;51.060;4.228;2022-12-07T16:55:23;3.25;;;2.10;;
5014;SDS011;2526;51.060;4.228;2022-12-07T16:57:48;3.35;;;1.77;;
5014;SDS011;2526;51.060;4.228;2022-12-07T17:00:13;8.18;;;2.90;;
5014;SDS011;2526;51.060;4.228;2022-12-07T17:02:39;4.22;;;2.05;;